Chennai, India
Current Conditions -  °F | °C
As of 6:40 PM on Monday 24 Nov 2014 (Local Time) from VOMM Reporting Station
Haze Haze  
Wind Chill: 26°   Ceiling: Unl
Heat Index: 27°   Visibility: 3mi
Dew Point: 21°   Wind: 8mph
Humidity: 74%   Direction: 40°NE
Pressure: 29.88"   Gusts: NA
Location:  13.06°N, 80.25°E
Report Text: VOMM 241340Z 04007KT 5000 HZ FEW020 26/21 Q1012 BECMG 6000
Loading
Personal Weather Stations






























Interactive Weather Map New forecast layout! Learn more

10-Day Weather Forecast

Advertisements
Track Severe Weather on mobile